Manouane, Canada
Current Conditions -  °F | °C
As of 3:00 PM on Sunday 25 Jan 2015 (Local Time) from CYRQ Reporting Station
Clear Clear  
Wind Chill: -3°   Ceiling: Unl
Heat Index: 12°   Visibility: 9mi
Dew Point: -6°   Wind: 13mph
Humidity: 45%   Direction: 300°WNW
Pressure: 29.79"   Gusts: NA
Location:  47.22°N, 74.37°W
Report Text: CYRQ 252000Z AUTO 30011KT 9SM CLR M11/M21 A2979 RMK SLP091
Loading
Personal Weather Stations






























Interactive Weather Map New forecast layout! Learn more

10-Day Weather Forecast

Advertisements
Track Severe Weather on mobile